This is the latest recevied weather packets stored in our database for station/object IZ1BLA-10. If no packets are shown the sender has not sent any weather packets the latest 1 day(s).
| Time | Temp. | Humidity | Pressure | Rain* | Wind** | Luminosity | Snow |
|---|---|---|---|---|---|---|---|
| 1778064558 | 18.89° C | 53% | 1005 hPa | - | - | - | - |
| 1778063958 | 18.33° C | 54% | 1005.2 hPa | - | - | - | - |
| 1778063358 | 19.44° C | 53% | 1005 hPa | - | - | - | - |
| 1778062757 | 18.33° C | 52% | 1005.5 hPa | - | - | - | - |
| 1778061557 | 17.78° C | 55% | 1005.7 hPa | - | - | - | - |
| 1778060360 | 17.78° C | 55% | 1005.8 hPa | - | - | - | - |
| 1778058557 | 17.22° C | 57% | 1006 hPa | - | - | - | - |
| 1778057357 | 16.67° C | 57% | 1006 hPa | - | - | - | - |
| 1778055557 | 15.56° C | 61% | 1006.3 hPa | - | - | - | - |
| 1778054957 | 15° C | 61% | 1006.5 hPa | - | - | - | - |
| 1778052557 | 13.89° C | 67% | 1007 hPa | - | - | - | - |
| 1778051957 | 13.89° C | 69% | 1007.1 hPa | - | - | - | - |
| 1778051357 | 12.78° C | 71% | 1007.6 hPa | - | - | - | - |
| 1778050757 | 13.89° C | 69% | 1007.2 hPa | - | - | - | - |
| 1778048957 | 11.67° C | 80% | 1008 hPa | - | - | - | - |
| 1778048357 | 12.22° C | 83% | 1008.1 hPa | - | - | - | - |
| 1778047157 | 10.56° C | 85% | 1008.9 hPa | - | - | - | - |
| 1778045957 | 10.56° C | 87% | 1008.9 hPa | - | - | - | - |
| 1778045357 | 10° C | 87% | 1009 hPa | - | - | - | - |
| 1778044757 | 9.44° C | 90% | 1009.4 hPa | - | - | - | - |
| 1778044157 | 11.67° C | 79% | 1008.5 hPa | - | - | - | - |
| 1778043557 | 11.11° C | 83% | 1008.7 hPa | - | - | - | - |
| 1778042957 | 11.11° C | 83% | 1008.7 hPa | - | - | - | - |
| 1778042357 | 11.11° C | 82% | 1008.9 hPa | - | - | - | - |
| 1778041757 | 11.67° C | 82% | 1008.7 hPa | - | - | - | - |
* Rain since midnight (hover to see other rain measurements)
** Current wind speed in m/s (hover to see current wind gust speed)